Renton Municipal Airport


Codes: KRNT/
Name: Renton Municipal Airport
City: Renton
Country: United States
Elevation: 32 ft.

Photos at Renton Municipal Airport


   Photos courtesy of SpottingLog. You can add your own sightings and photos by signing up for a free trial today.



LX-DIO, 05-Nov-2015
© Patrick T

HP-1852CMP, 04-Nov-2015
© Patrick T

VH-YFV, 16-Oct-2015
© Patrick T

N1796B, 15-Oct-2013
© Erik van der Eyken

UR-PSJ, 15-Oct-2013
© Erik van der Eyken

B-1908, 15-Oct-2013
© Erik van der Eyken

N186AC, 15-Oct-2013
© Erik van der Eyken

N761BA, 03-Oct-2011
© Erik van der Eyken

9M-MXF, 03-Oct-2011
© Erik van der Eyken


Weather at Renton Municipal Airport


Time (UTC)DescriptionTempratureWindCloud coverageVisibilityPressureHumidity
16-Jun-2024 12:00Broken Clouds9°C4 mph, S59%10000m1020hPa89%
16-Jun-2024 15:00Broken Clouds8°C2 mph, S80%10000m1020hPa90%
16-Jun-2024 18:00Overcast Clouds11°C4 mph, S95%10000m1019hPa71%
16-Jun-2024 21:00Light Rain16°C2 mph, N79%10000m1016hPa45%
17-Jun-2024 00:00Light Rain16°C9 mph, N73%10000m1015hPa48%
17-Jun-2024 03:00Scattered Clouds13°C7 mph, N41%10000m1014hPa59%
17-Jun-2024 06:00Broken Clouds9°C2 mph, NE70%10000m1016hPa80%
17-Jun-2024 09:00Overcast Clouds8°C2 mph, SE100%10000m1016hPa85%
17-Jun-2024 12:00Overcast Clouds9°C2 mph, S99%10000m1016hPa80%
17-Jun-2024 15:00Overcast Clouds10°C4 mph, S100%10000m1017hPa80%
17-Jun-2024 18:00Overcast Clouds13°C4 mph, S100%10000m1017hPa67%
17-Jun-2024 21:00Light Rain15°C7 mph, S100%10000m1017hPa65%
18-Jun-2024 00:00Light Rain15°C2 mph, SE100%10000m1017hPa73%
18-Jun-2024 03:00Light Rain14°C4 mph, S100%10000m1017hPa81%
18-Jun-2024 06:00Overcast Clouds12°C4 mph, S96%10000m1018hPa84%
18-Jun-2024 09:00Overcast Clouds11°C4 mph, S100%10000m1018hPa83%
18-Jun-2024 12:00Overcast Clouds11°C2 mph, S100%10000m1018hPa84%
18-Jun-2024 15:00Overcast Clouds12°C2 mph, S100%10000m1019hPa77%
18-Jun-2024 18:00Broken Clouds18°C2 mph, SW82%10000m1017hPa51%
18-Jun-2024 21:00Scattered Clouds22°C4 mph, N36%10000m1016hPa39%
19-Jun-2024 00:00Scattered Clouds22°C9 mph, N32%10000m1015hPa38%
19-Jun-2024 03:00Clear Sky18°C7 mph, N0%10000m1015hPa50%
19-Jun-2024 06:00Clear Sky13°C4 mph, NE0%10000m1016hPa73%
19-Jun-2024 09:00Clear Sky11°C4 mph, NE0%10000m1016hPa82%
19-Jun-2024 12:00Clear Sky10°C2 mph, NE0%10000m1016hPa89%
19-Jun-2024 15:00Few Clouds15°C4 mph, N22%10000m1016hPa66%
19-Jun-2024 18:00Scattered Clouds22°C7 mph, N40%10000m1015hPa45%
19-Jun-2024 21:00Broken Clouds25°C7 mph, NW62%10000m1014hPa35%
20-Jun-2024 00:00Broken Clouds25°C7 mph, N76%10000m1013hPa34%
20-Jun-2024 03:00Few Clouds21°C7 mph, N17%10000m1013hPa48%
20-Jun-2024 06:00Few Clouds15°C4 mph, N21%10000m1014hPa70%
20-Jun-2024 09:00Scattered Clouds13°C4 mph, N31%10000m1014hPa78%
20-Jun-2024 12:00Broken Clouds13°C2 mph, NE66%10000m1014hPa81%
20-Jun-2024 15:00Overcast Clouds17°C4 mph, N100%10000m1014hPa64%
20-Jun-2024 18:00Overcast Clouds22°C4 mph, N100%10000m1014hPa47%
20-Jun-2024 21:00Overcast Clouds26°C7 mph, N100%10000m1013hPa35%
21-Jun-2024 00:00Overcast Clouds27°C9 mph, N86%10000m1012hPa33%
21-Jun-2024 03:00Clear Sky23°C4 mph, N8%10000m1012hPa48%
21-Jun-2024 06:00Clear Sky17°C4 mph, NE4%10000m1013hPa65%
21-Jun-2024 09:00Overcast Clouds15°C2 mph, NE96%10000m1014hPa70%